Terminal Aerodrome Forecast
Issued by NWS Jacksonville, FL

Home | Current Version | Previous Version | Text Only | Print | Product List | Glossary On
Versions: 1 2 3 4 5 6 7 8 9 10 11 12 13 14 15 16 17 18 19 20 21 22 23 24 25 26 27 28 29 30 31 32 33 34
000
FTUS42 KJAX 010620 AAA
TAFSSI
TAF AMD
KSSI 010620Z 0106/0206 03004KT P6SM VCTS SCT020CB BKN250
      TEMPO 0107/0110 1SM +SHRA BR BKN020
     FM011600 15007KT P6SM SCT025 BKN070 OVC250=

USA.gov is the U.S. government's official web portal to all federal, state and local government web resources and services.